createdAt,value
2018-08-11T00:00:33.689Z,16.01
2018-08-11T00:03:01.978Z,16.07
2018-08-11T00:05:31.385Z,16.00
2018-08-11T00:07:59.688Z,15.93
2018-08-11T00:10:27.957Z,15.89
2018-08-11T00:12:56.249Z,15.91
2018-08-11T00:15:24.551Z,15.92
2018-08-11T00:17:52.874Z,15.96
2018-08-11T00:20:25.568Z,15.92
2018-08-11T00:22:57.196Z,15.81
2018-08-11T00:25:25.564Z,15.85
2018-08-11T00:27:53.911Z,15.91
2018-08-11T00:30:22.426Z,15.84
2018-08-11T00:32:51.885Z,15.81
2018-08-11T00:35:20.220Z,15.85
2018-08-11T00:37:48.485Z,15.79
2018-08-11T00:40:17.960Z,15.82
2018-08-11T00:42:47.440Z,15.81
2018-08-11T00:45:16.488Z,15.87
2018-08-11T00:47:46.865Z,15.88
2018-08-11T00:50:25.204Z,15.91
2018-08-11T00:52:53.872Z,15.98
2018-08-11T00:55:22.185Z,15.78
2018-08-11T00:57:50.483Z,15.91
2018-08-11T01:00:19.813Z,16.10
2018-08-11T01:02:48.144Z,16.30
2018-08-11T01:05:19.977Z,16.15
2018-08-11T01:07:49.298Z,16.26
2018-08-11T01:10:17.843Z,16.33
2018-08-11T01:12:46.766Z,16.47
2018-08-11T01:15:17.492Z,16.42
2018-08-11T01:17:46.657Z,16.42
2018-08-11T01:20:17.325Z,16.47
2018-08-11T01:22:46.533Z,16.46
2018-08-11T01:25:16.789Z,16.57
2018-08-11T01:27:46.162Z,16.74
2018-08-11T01:30:18.509Z,16.57
2018-08-11T01:32:46.858Z,16.71
2018-08-11T01:35:15.202Z,16.81
2018-08-11T01:37:44.477Z,16.87
2018-08-11T01:40:14.679Z,16.85
2018-08-11T01:42:44.201Z,16.90
2018-08-11T01:45:13.360Z,16.85
2018-08-11T01:47:42.192Z,16.80
2018-08-11T01:50:11.680Z,16.67
2018-08-11T01:52:41.296Z,16.64
2018-08-11T01:55:10.653Z,16.56
2018-08-11T01:57:38.958Z,16.52
2018-08-11T02:00:09.302Z,16.51
2018-08-11T02:02:37.784Z,16.45
2018-08-11T02:05:06.493Z,16.49
2018-08-11T02:07:34.808Z,16.41
2018-08-11T02:10:06.980Z,16.44
2018-08-11T02:12:35.320Z,16.37
2018-08-11T02:15:07.052Z,16.46
2018-08-11T02:17:36.481Z,16.58
2018-08-11T02:20:06.763Z,16.55
2018-08-11T02:22:35.094Z,16.44
2018-08-11T02:25:08.316Z,16.48
2018-08-11T02:27:36.716Z,16.46
2018-08-11T02:30:07.142Z,16.52
2018-08-11T02:32:35.499Z,16.63
2018-08-11T02:35:04.049Z,16.69
2018-08-11T02:37:32.362Z,16.71
2018-08-11T02:40:00.711Z,16.61
2018-08-11T02:42:29.013Z,16.64
2018-08-11T02:44:57.361Z,16.73
2018-08-11T02:47:25.634Z,16.81
2018-08-11T02:49:53.949Z,16.80
2018-08-11T02:52:22.277Z,16.81
2018-08-11T02:54:50.541Z,16.82
2018-08-11T02:57:18.841Z,16.78
2018-08-11T02:59:47.168Z,16.83
2018-08-11T03:02:15.508Z,16.82
2018-08-11T03:04:43.801Z,16.81
2018-08-11T03:07:12.632Z,16.69
2018-08-11T03:09:41.967Z,16.48
2018-08-11T03:12:10.358Z,16.64
2018-08-11T03:14:38.660Z,16.80
2018-08-11T03:17:06.970Z,16.71
2018-08-11T03:19:35.287Z,16.64
2018-08-11T03:22:03.654Z,16.51
2018-08-11T03:24:31.977Z,16.54
2018-08-11T03:27:00.281Z,16.51
2018-08-11T03:29:28.574Z,16.62
2018-08-11T03:31:56.935Z,16.53
2018-08-11T03:34:25.353Z,16.55
2018-08-11T03:36:53.719Z,16.62
2018-08-11T03:39:22.013Z,16.66
2018-08-11T03:41:50.360Z,16.69
2018-08-11T03:44:18.711Z,16.58
2018-08-11T03:46:47.013Z,16.58
2018-08-11T03:49:15.374Z,16.61
2018-08-11T03:51:43.642Z,16.61
2018-08-11T03:54:11.982Z,16.70
2018-08-11T03:56:40.293Z,16.81
2018-08-11T03:59:08.618Z,16.72
2018-08-11T04:01:36.917Z,16.90
2018-08-11T04:04:06.342Z,16.87
2018-08-11T04:06:35.637Z,16.82
2018-08-11T04:09:05.944Z,16.51
2018-08-11T04:11:34.243Z,16.69
2018-08-11T04:14:02.570Z,16.51
2018-08-11T04:16:30.873Z,16.53
2018-08-11T04:19:01.145Z,16.47
2018-08-11T04:21:29.409Z,16.47
2018-08-11T04:23:57.705Z,16.38
2018-08-11T04:26:25.957Z,16.34
2018-08-11T04:28:54.241Z,16.17
2018-08-11T04:31:22.505Z,16.16
2018-08-11T04:33:50.870Z,16.06
2018-08-11T04:36:19.153Z,15.83
2018-08-11T04:38:47.446Z,15.88
2018-08-11T04:41:15.700Z,15.60
2018-08-11T04:43:44.197Z,15.69
2018-08-11T04:46:12.512Z,15.72
2018-08-11T04:48:40.788Z,15.49
2018-08-11T04:51:09.137Z,15.41
2018-08-11T04:53:37.408Z,15.17
2018-08-11T04:56:06.795Z,15.25
2018-08-11T04:58:35.049Z,14.95
2018-08-11T05:01:03.382Z,14.90
2018-08-11T05:03:31.660Z,14.87
2018-08-11T05:05:59.944Z,14.86
2018-08-11T05:08:30.718Z,14.82
2018-08-11T05:10:59.029Z,14.84
2018-08-11T05:13:27.311Z,14.83
2018-08-11T05:15:55.610Z,14.95
2018-08-11T05:18:23.861Z,15.14
2018-08-11T05:20:52.147Z,15.32
2018-08-11T05:23:20.684Z,15.48
2018-08-11T05:25:48.961Z,15.25
2018-08-11T05:28:17.241Z,15.27
2018-08-11T05:30:45.555Z,15.43
2018-08-11T05:33:13.867Z,15.14
2018-08-11T05:35:42.145Z,15.20
2018-08-11T05:38:10.450Z,15.21
2018-08-11T05:40:38.708Z,15.25
2018-08-11T05:43:07.035Z,15.08
2018-08-11T05:45:35.295Z,15.15
2018-08-11T05:48:04.977Z,15.01
2018-08-11T05:50:33.316Z,15.07
2018-08-11T05:53:01.563Z,14.93
2018-08-11T05:55:29.961Z,14.83
2018-08-11T05:57:58.259Z,14.89
2018-08-11T06:00:26.537Z,14.93
2018-08-11T06:02:54.824Z,14.90
2018-08-11T06:05:23.130Z,15.33
2018-08-11T06:07:51.449Z,15.17
2018-08-11T06:10:19.767Z,15.25
2018-08-11T06:12:49.073Z,15.33
2018-08-11T06:15:17.416Z,15.24
2018-08-11T06:17:45.727Z,15.07
2018-08-11T06:20:14.997Z,15.14
2018-08-11T06:22:43.327Z,14.87
2018-08-11T06:25:11.870Z,15.08
2018-08-11T06:27:40.493Z,15.20
2018-08-11T06:30:09.819Z,15.12
2018-08-11T06:32:38.456Z,14.81
2018-08-11T06:35:07.472Z,14.90
2018-08-11T06:37:35.908Z,15.11
2018-08-11T06:40:04.889Z,15.21
2018-08-11T06:42:33.177Z,15.04
2018-08-11T06:45:01.477Z,14.87
2018-08-11T06:47:30.937Z,14.88
2018-08-11T06:49:59.326Z,14.99
2018-08-11T06:52:27.660Z,15.16
2018-08-11T06:54:55.964Z,15.33
2018-08-11T06:57:24.209Z,15.48
2018-08-11T06:59:52.493Z,15.56
2018-08-11T07:02:20.765Z,15.72
2018-08-11T07:04:50.130Z,15.83
2018-08-11T07:07:18.380Z,15.96
2018-08-11T07:09:46.661Z,16.29
2018-08-11T07:12:14.948Z,16.01
2018-08-11T07:14:43.241Z,16.10
2018-08-11T07:17:13.522Z,15.96
2018-08-11T07:19:41.833Z,16.08
2018-08-11T07:22:10.097Z,16.30
2018-08-11T07:24:43.120Z,16.30
2018-08-11T07:27:11.373Z,16.02
2018-08-11T07:29:39.630Z,16.09
2018-08-11T07:32:07.924Z,16.13
2018-08-11T07:34:36.224Z,16.72
2018-08-11T07:37:04.584Z,16.63
2018-08-11T07:39:33.007Z,17.10
2018-08-11T07:42:01.321Z,17.22
2018-08-11T07:44:29.924Z,17.37
2018-08-11T07:46:58.214Z,17.24
2018-08-11T07:49:26.488Z,17.52
2018-08-11T07:51:54.841Z,17.88
2018-08-11T07:54:23.106Z,17.47
2018-08-11T07:56:52.491Z,17.85
2018-08-11T07:59:20.781Z,17.54
2018-08-11T08:01:50.156Z,17.80
2018-08-11T08:04:19.466Z,18.13
2018-08-11T08:06:51.680Z,17.70
2018-08-11T08:09:19.961Z,17.85
2018-08-11T08:11:48.269Z,18.31
2018-08-11T08:14:16.545Z,18.78
2018-08-11T08:16:44.863Z,18.54
2018-08-11T08:19:13.142Z,19.23
2018-08-11T08:21:41.417Z,19.72
2018-08-11T08:24:09.704Z,18.63
2018-08-11T08:26:38.138Z,17.69
2018-08-11T08:29:06.388Z,18.06
2018-08-11T08:31:34.944Z,18.08
2018-08-11T08:34:03.236Z,18.10
2018-08-11T08:36:31.540Z,18.02
2018-08-11T08:38:59.849Z,18.44
2018-08-11T08:41:28.117Z,18.49
2018-08-11T08:43:56.517Z,19.06
2018-08-11T08:46:24.796Z,19.05
2018-08-11T08:48:53.288Z,19.15
2018-08-11T08:51:22.573Z,18.04
2018-08-11T08:53:51.885Z,18.03
2018-08-11T08:56:21.160Z,17.93
2018-08-11T08:58:49.473Z,18.26
2018-08-11T09:01:18.915Z,18.41
2018-08-11T09:03:47.218Z,19.10
2018-08-11T09:06:15.660Z,19.23
2018-08-11T09:08:43.960Z,19.65
2018-08-11T09:11:12.248Z,20.31
2018-08-11T09:13:40.553Z,19.39
2018-08-11T09:16:08.837Z,19.61
2018-08-11T09:18:38.252Z,18.84
2018-08-11T09:21:06.548Z,18.78
2018-08-11T09:23:35.912Z,18.61
2018-08-11T09:26:04.241Z,18.68
2018-08-11T09:28:32.510Z,16.80
2018-08-11T09:31:00.845Z,15.69
2018-08-11T09:33:29.234Z,15.43
2018-08-11T09:35:58.637Z,15.63
2018-08-11T09:38:26.923Z,15.75
2018-08-11T09:40:55.261Z,15.78
2018-08-11T09:43:23.560Z,15.83
2018-08-11T09:45:51.875Z,16.39
2018-08-11T09:48:20.149Z,16.65
2018-08-11T09:50:48.521Z,17.18
2018-08-11T09:53:16.862Z,17.38
2018-08-11T09:55:45.173Z,17.43
2018-08-11T09:58:13.484Z,17.74
2018-08-11T10:00:47.212Z,17.56
2018-08-11T10:03:15.533Z,17.72
2018-08-11T10:05:43.889Z,17.56
2018-08-11T10:08:12.237Z,17.73
2018-08-11T10:10:40.638Z,17.51
2018-08-11T10:13:08.934Z,17.36
2018-08-11T10:15:37.253Z,17.19
2018-08-11T10:18:06.002Z,17.23
2018-08-11T10:20:34.249Z,17.54
2018-08-11T10:23:02.628Z,17.15
2018-08-11T10:25:31.111Z,17.26
2018-08-11T10:27:59.513Z,17.24
2018-08-11T10:30:27.793Z,16.97
2018-08-11T10:32:56.160Z,17.18
2018-08-11T10:35:24.517Z,17.22
2018-08-11T10:37:53.966Z,16.85
2018-08-11T10:40:22.328Z,16.94
2018-08-11T10:42:50.589Z,17.24
2018-08-11T10:45:18.897Z,16.84
2018-08-11T10:47:47.557Z,17.08
2018-08-11T10:50:15.820Z,17.00
2018-08-11T10:52:44.327Z,18.01
2018-08-11T10:55:12.641Z,18.06
2018-08-11T10:57:40.924Z,17.99
2018-08-11T11:00:09.202Z,17.52
2018-08-11T11:02:40.646Z,18.19
2018-08-11T11:05:09.669Z,18.44
2018-08-11T11:07:38.018Z,18.25
2018-08-11T11:10:07.976Z,18.46
2018-08-11T11:12:40.169Z,18.37
2018-08-11T11:15:09.151Z,18.28
2018-08-11T11:17:37.529Z,17.82
2018-08-11T11:20:07.445Z,17.97
2018-08-11T11:22:35.753Z,17.74
2018-08-11T11:25:04.521Z,17.67
2018-08-11T11:27:32.849Z,16.91
2018-08-11T11:30:01.169Z,16.45
2018-08-11T11:32:29.721Z,16.17
2018-08-11T11:34:58.101Z,15.83
2018-08-11T11:37:26.465Z,15.59
2018-08-11T11:39:54.806Z,15.42
2018-08-11T11:42:23.077Z,15.28
2018-08-11T11:44:51.415Z,15.34
2018-08-11T11:47:19.734Z,15.27
2018-08-11T11:49:48.061Z,15.49
2018-08-11T11:52:17.471Z,15.59
2018-08-11T11:54:45.807Z,15.66
2018-08-11T11:57:14.097Z,15.82
2018-08-11T11:59:44.496Z,15.87
2018-08-11T12:02:12.863Z,16.07
2018-08-11T12:04:41.153Z,16.24
2018-08-11T12:07:09.438Z,16.50
2018-08-11T12:09:37.687Z,16.53
2018-08-11T12:12:06.379Z,16.58
2018-08-11T12:14:34.656Z,16.68
2018-08-11T12:17:02.941Z,16.54
2018-08-11T12:19:31.248Z,16.32
2018-08-11T12:21:59.528Z,16.33
2018-08-11T12:24:27.784Z,16.46
2018-08-11T12:26:56.070Z,16.73
2018-08-11T12:29:24.345Z,17.08
2018-08-11T12:31:52.662Z,17.29
2018-08-11T12:34:20.929Z,17.64
2018-08-11T12:36:49.246Z,18.04
2018-08-11T12:39:18.522Z,17.89
2018-08-11T12:41:46.846Z,17.99
2018-08-11T12:44:15.118Z,18.32
2018-08-11T12:46:43.409Z,18.66
2018-08-11T12:49:11.689Z,18.43
2018-08-11T12:51:39.988Z,18.46
2018-08-11T12:54:08.269Z,18.68
2018-08-11T12:56:37.675Z,18.97
2018-08-11T12:59:06.097Z,19.33
2018-08-11T13:01:34.408Z,19.23
2018-08-11T13:04:02.724Z,18.88
2018-08-11T13:06:31.029Z,18.58
2018-08-11T13:08:59.344Z,18.37
2018-08-11T13:11:27.757Z,18.40
2018-08-11T13:13:56.052Z,18.10
2018-08-11T13:16:24.313Z,17.81
2018-08-11T13:18:52.601Z,17.55
2018-08-11T13:21:21.967Z,16.82
2018-08-11T13:23:50.265Z,16.13
2018-08-11T13:26:19.617Z,15.77
2018-08-11T13:28:48.917Z,15.69
2018-08-11T13:31:17.192Z,15.70
2018-08-11T13:33:45.494Z,16.11
2018-08-11T13:36:13.844Z,16.34
2018-08-11T13:38:42.223Z,16.37
2018-08-11T13:41:10.444Z,16.44
2018-08-11T13:43:38.901Z,16.58
2018-08-11T13:46:07.174Z,17.39
2018-08-11T13:48:35.501Z,18.11
2018-08-11T13:51:03.769Z,18.89
2018-08-11T13:53:32.107Z,19.15
2018-08-11T13:56:00.428Z,19.32
2018-08-11T13:58:30.073Z,19.44
2018-08-11T14:00:58.466Z,20.36
2018-08-11T14:03:26.750Z,21.03
2018-08-11T14:05:55.064Z,20.54
2018-08-11T14:08:23.341Z,21.44
2018-08-11T14:10:51.643Z,22.00
2018-08-11T14:13:19.930Z,22.24
2018-08-11T14:15:48.257Z,23.46
2018-08-11T14:18:16.547Z,22.83
2018-08-11T14:20:45.196Z,22.64
2018-08-11T14:23:13.526Z,21.46
2018-08-11T14:25:41.890Z,22.15
2018-08-11T14:28:10.102Z,23.00
2018-08-11T14:30:38.396Z,21.61
2018-08-11T14:33:06.668Z,22.98
2018-08-11T14:35:34.970Z,22.80
2018-08-11T14:38:03.285Z,20.35
2018-08-11T14:40:31.581Z,19.50
2018-08-11T14:42:59.865Z,22.21
2018-08-11T14:45:28.193Z,24.78
2018-08-11T14:47:56.522Z,23.63
2018-08-11T14:50:24.776Z,22.50
2018-08-11T14:52:53.065Z,20.63
2018-08-11T14:55:21.380Z,21.02
2018-08-11T14:57:49.709Z,23.03
2018-08-11T15:00:19.021Z,24.48
2018-08-11T15:02:48.323Z,24.86
2018-08-11T15:05:20.786Z,25.79
2018-08-11T15:07:50.097Z,27.55
2018-08-11T15:10:18.378Z,27.45
2018-08-11T15:12:46.703Z,23.88
2018-08-11T15:15:14.977Z,24.61
2018-08-11T15:17:43.532Z,24.92
2018-08-11T15:20:11.852Z,22.66
2018-08-11T15:22:40.593Z,21.22
2018-08-11T15:25:09.667Z,21.32
2018-08-11T15:27:38.021Z,22.03
2018-08-11T15:30:08.154Z,21.10
2018-08-11T15:32:36.468Z,22.92
2018-08-11T15:35:05.393Z,24.92
2018-08-11T15:40:36.081Z,24.23
2018-08-11T15:43:04.349Z,25.26
2018-08-11T15:45:32.597Z,24.05
2018-08-11T15:48:00.869Z,24.77
2018-08-11T15:50:29.121Z,25.20
2018-08-11T15:52:59.432Z,22.58
2018-08-11T15:55:27.845Z,20.73
2018-08-11T15:57:56.133Z,19.57
2018-08-11T16:00:24.434Z,19.22
2018-08-11T16:02:52.733Z,19.03
2018-08-11T16:05:21.017Z,18.94
2018-08-11T16:07:49.272Z,18.71
2018-08-11T16:10:17.568Z,18.81
2018-08-11T16:12:46.837Z,20.16
2018-08-11T16:15:15.169Z,23.16
2018-08-11T16:17:44.803Z,25.73
2018-08-11T16:20:13.073Z,26.13
2018-08-11T16:22:41.352Z,25.77
2018-08-11T16:25:09.637Z,24.31
2018-08-11T16:27:37.883Z,20.57
2018-08-11T16:30:08.513Z,19.66
2018-08-11T16:32:40.209Z,19.80
2018-08-11T16:35:09.177Z,19.47
2018-08-11T16:37:37.934Z,18.76
2018-08-11T16:40:07.116Z,18.70
2018-08-11T16:42:35.576Z,18.76
2018-08-11T16:45:03.950Z,19.80
2018-08-11T16:47:32.207Z,23.23
2018-08-11T16:50:00.502Z,24.05
2018-08-11T16:52:28.797Z,23.98
2018-08-11T16:54:57.134Z,22.13
2018-08-11T16:57:26.514Z,20.33
2018-08-11T16:59:55.882Z,19.32
2018-08-11T17:02:24.206Z,18.76
2018-08-11T17:04:52.465Z,20.22
2018-08-11T17:07:20.764Z,20.75
2018-08-11T17:09:49.030Z,19.83
2018-08-11T17:12:18.411Z,19.09
2018-08-11T17:14:46.770Z,18.76
2018-08-11T17:17:14.945Z,18.43
2018-08-11T17:19:43.461Z,18.20
2018-08-11T17:22:11.752Z,18.15
2018-08-11T17:24:40.009Z,18.05
2018-08-11T17:27:08.370Z,18.24
2018-08-11T17:29:36.632Z,18.37
2018-08-11T17:32:04.921Z,18.30
2018-08-11T17:34:33.177Z,18.30
2018-08-11T17:37:01.490Z,18.25
2018-08-11T17:39:29.773Z,18.10
2018-08-11T17:41:58.045Z,17.91
2018-08-11T17:44:27.297Z,17.82
2018-08-11T17:46:56.617Z,17.67
2018-08-11T17:49:24.889Z,17.65
2018-08-11T17:51:54.177Z,17.56
2018-08-11T17:54:22.476Z,17.39
2018-08-11T17:56:50.733Z,17.43
2018-08-11T17:59:19.108Z,17.29
2018-08-11T18:01:47.366Z,17.38
2018-08-11T18:04:17.762Z,17.32
2018-08-11T18:06:46.032Z,17.33
2018-08-11T18:09:14.293Z,17.46
2018-08-11T18:11:46.007Z,17.38
2018-08-11T18:14:14.273Z,17.46
2018-08-11T18:16:43.669Z,17.54
2018-08-11T18:19:11.956Z,17.42
2018-08-11T18:21:40.216Z,17.48
2018-08-11T18:24:08.526Z,17.38
2018-08-11T18:26:36.885Z,17.06
2018-08-11T18:29:05.424Z,17.05
2018-08-11T18:31:34.005Z,17.00
2018-08-11T18:34:02.277Z,16.85
2018-08-11T18:36:30.549Z,16.80
2018-08-11T18:38:58.833Z,16.81
2018-08-11T18:41:28.213Z,16.83
2018-08-11T18:43:56.510Z,16.66
2018-08-11T18:46:24.788Z,16.68
2018-08-11T18:48:53.039Z,16.64
2018-08-11T18:51:21.318Z,16.61
2018-08-11T18:53:49.574Z,16.47
2018-08-11T18:56:17.899Z,16.34
2018-08-11T18:58:46.161Z,16.47
2018-08-11T19:01:15.436Z,16.32
2018-08-11T19:03:43.685Z,16.26
2018-08-11T19:06:11.980Z,16.30
2018-08-11T19:08:40.223Z,16.25
2018-08-11T19:11:08.530Z,16.19
2018-08-11T19:13:36.782Z,16.25
2018-08-11T19:16:06.065Z,16.22
2018-08-11T19:18:34.304Z,16.26
2018-08-11T19:21:02.600Z,16.36
2018-08-11T19:23:30.921Z,16.15
2018-08-11T19:25:59.282Z,16.14
2018-08-11T19:28:27.490Z,16.12
2018-08-11T19:30:55.769Z,15.97
2018-08-11T19:33:24.049Z,16.08
2018-08-11T19:35:52.437Z,15.89
2018-08-11T19:38:20.777Z,15.89
2018-08-11T19:40:49.017Z,15.91
2018-08-11T19:43:17.302Z,15.95
2018-08-11T19:45:46.684Z,15.95
2018-08-11T19:48:14.910Z,15.77
2018-08-11T19:50:43.157Z,15.91
2018-08-11T19:53:11.485Z,15.82
2018-08-11T19:55:39.749Z,15.77
2018-08-11T19:58:08.037Z,15.81
2018-08-11T20:00:36.295Z,15.71
2018-08-11T20:03:04.630Z,15.62
2018-08-11T20:05:32.876Z,15.70
2018-08-11T20:08:01.219Z,15.66
2018-08-11T20:10:29.676Z,15.66
2018-08-11T20:12:57.989Z,15.72
2018-08-11T20:15:26.249Z,15.65
2018-08-11T20:17:54.526Z,15.68
2018-08-11T20:20:22.789Z,15.57
2018-08-11T20:22:51.097Z,15.52
2018-08-11T20:25:19.433Z,15.56
2018-08-11T20:27:48.717Z,15.51
2018-08-11T20:30:17.557Z,15.55
2018-08-11T20:32:45.801Z,15.52
2018-08-11T20:35:15.153Z,15.51
2018-08-11T20:37:43.552Z,15.50
2018-08-11T20:40:11.893Z,15.55
2018-08-11T20:42:40.226Z,15.48
2018-08-11T20:45:09.576Z,15.44
2018-08-11T20:47:37.853Z,15.29
2018-08-11T20:50:07.924Z,15.30
2018-08-11T20:52:36.185Z,15.32
2018-08-11T20:55:05.673Z,15.20
2018-08-11T20:57:33.941Z,15.28
2018-08-11T21:00:02.241Z,15.15
2018-08-11T21:02:30.488Z,15.10
2018-08-11T21:04:58.773Z,15.10
2018-08-11T21:07:27.012Z,15.18
2018-08-11T21:09:55.304Z,15.25
2018-08-11T21:12:23.629Z,15.16
2018-08-11T21:14:51.918Z,15.03
2018-08-11T21:17:20.348Z,15.04
2018-08-11T21:19:48.681Z,15.11
2018-08-11T21:22:16.945Z,15.08
2018-08-11T21:24:45.274Z,15.08
2018-08-11T21:27:13.525Z,15.02
2018-08-11T21:29:42.884Z,14.98
2018-08-11T21:32:11.160Z,14.91
2018-08-11T21:34:40.429Z,14.96
2018-08-11T21:37:08.738Z,14.99
2018-08-11T21:39:36.997Z,15.01
2018-08-11T21:42:05.433Z,14.96
2018-08-11T21:44:33.715Z,15.07
2018-08-11T21:47:02.016Z,15.10
2018-08-11T21:49:30.306Z,15.02
2018-08-11T21:51:58.589Z,14.95
2018-08-11T21:54:26.833Z,15.03
2018-08-11T21:56:56.181Z,14.91
2018-08-11T21:59:24.425Z,14.90
2018-08-11T22:01:53.000Z,15.07
2018-08-11T22:04:21.278Z,15.07
2018-08-11T22:06:49.572Z,15.02
2018-08-11T22:09:17.812Z,15.17
2018-08-11T22:11:46.109Z,15.18
2018-08-11T22:14:14.382Z,15.16
2018-08-11T22:16:42.632Z,15.22
2018-08-11T22:19:10.913Z,15.24
2018-08-11T22:21:39.196Z,15.29
2018-08-11T22:24:08.544Z,15.34
2018-08-11T22:26:36.833Z,15.48
2018-08-11T22:29:05.280Z,15.39
2018-08-11T22:31:33.556Z,15.23
2018-08-11T22:34:01.866Z,15.06
2018-08-11T22:36:30.173Z,14.91
2018-08-11T22:38:58.565Z,14.84
2018-08-11T22:41:27.745Z,14.79
2018-08-11T22:43:56.426Z,14.84
2018-08-11T22:46:24.681Z,14.75
2018-08-11T22:48:52.967Z,14.75
2018-08-11T22:51:21.226Z,14.76
2018-08-11T22:53:53.743Z,14.77
2018-08-11T22:56:23.123Z,14.67
2018-08-11T22:58:51.440Z,14.61
2018-08-11T23:01:19.741Z,14.57
2018-08-11T23:03:48.064Z,14.62
2018-08-11T23:06:16.321Z,14.59
2018-08-11T23:08:44.593Z,14.61
2018-08-11T23:11:12.986Z,14.56
2018-08-11T23:13:41.276Z,14.38
2018-08-11T23:16:10.670Z,14.45
2018-08-11T23:18:39.019Z,14.43
2018-08-11T23:21:07.301Z,14.61
2018-08-11T23:23:35.568Z,14.49
2018-08-11T23:26:04.952Z,14.51
2018-08-11T23:28:34.196Z,14.44
2018-08-11T23:31:02.472Z,14.36
2018-08-11T23:33:30.853Z,14.41
2018-08-11T23:36:00.192Z,14.40
2018-08-11T23:38:28.471Z,14.30
2018-08-11T23:40:57.878Z,14.48
2018-08-11T23:43:26.166Z,14.43
2018-08-11T23:45:54.453Z,14.54
2018-08-11T23:48:22.708Z,14.56
2018-08-11T23:50:51.119Z,14.46
2018-08-11T23:53:19.402Z,14.36
2018-08-11T23:55:47.688Z,14.47
2018-08-11T23:58:15.939Z,14.45
